Terminal Aerodrome Forecast
Issued by NWS

Home | Current Version | Previous Version | Graphics & Text | Print | Product List | Glossary On
Versions: 1 2 3 4 5 6 7 8 9 10 11 12 13 14 15 16 17 18 19 20
000
FTUS42 KMHX 270059 AAA
TAFPGV
TAF AMD
KPGV 270059Z 2701/2724 15006KT 3SM TSRA SCT010 BKN015CB OVC040
     FM270145 21008KT P6SM VCTS BKN040CB
     FM270400 VRB04KT P6SM BKN050 BKN250
     FM271000 VRB04KT P6SM VCTS BKN050CB
     FM271400 17008KT P6SM VCTS BKN040CB
      AMD LTD TO CLD VIS AND WIND=

USA.gov is the U.S. government's official web portal to all federal, state and local government web resources and services.